sensor_id;sensor_type;location;lat;lon;timestamp;P1;durP1;ratioP1;P2;durP2;ratioP2
64543;SDS011;50936;51.660;5.616;2023-04-24T00:01:58;11.55;;;6.63;;
64543;SDS011;50936;51.660;5.616;2023-04-24T00:04:26;13.65;;;7.70;;
64543;SDS011;50936;51.660;5.616;2023-04-24T00:06:53;14.20;;;6.70;;
64543;SDS011;50936;51.660;5.616;2023-04-24T00:09:23;11.77;;;6.72;;
64543;SDS011;50936;51.660;5.616;2023-04-24T00:11:50;11.05;;;6.72;;
64543;SDS011;50936;51.660;5.616;2023-04-24T00:14:17;11.35;;;6.43;;
64543;SDS011;50936;51.660;5.616;2023-04-24T00:16:44;11.07;;;6.53;;
64543;SDS011;50936;51.660;5.616;2023-04-24T00:19:11;10.43;;;6.25;;
64543;SDS011;50936;51.660;5.616;2023-04-24T00:21:39;10.35;;;6.22;;
64543;SDS011;50936;51.660;5.616;2023-04-24T00:24:07;12.77;;;6.45;;
64543;SDS011;50936;51.660;5.616;2023-04-24T00:26:37;12.50;;;8.07;;
64543;SDS011;50936;51.660;5.616;2023-04-24T00:29:04;15.88;;;7.57;;
64543;SDS011;50936;51.660;5.616;2023-04-24T00:31:31;15.98;;;7.93;;
64543;SDS011;50936;51.660;5.616;2023-04-24T00:34:01;12.27;;;7.75;;
64543;SDS011;50936;51.660;5.616;2023-04-24T00:36:29;14.13;;;7.20;;
64543;SDS011;50936;51.660;5.616;2023-04-24T00:38:57;14.23;;;7.30;;
64543;SDS011;50936;51.660;5.616;2023-04-24T00:41:24;14.93;;;7.20;;
64543;SDS011;50936;51.660;5.616;2023-04-24T00:43:52;17.00;;;9.02;;
64543;SDS011;50936;51.660;5.616;2023-04-24T00:46:19;19.75;;;9.35;;
64543;SDS011;50936;51.660;5.616;2023-04-24T00:48:47;18.10;;;10.77;;
64543;SDS011;50936;51.660;5.616;2023-04-24T00:51:14;19.25;;;10.07;;
64543;SDS011;50936;51.660;5.616;2023-04-24T00:53:42;15.98;;;7.90;;
64543;SDS011;50936;51.660;5.616;2023-04-24T00:56:09;22.98;;;14.15;;
64543;SDS011;50936;51.660;5.616;2023-04-24T00:58:36;19.30;;;9.48;;
64543;SDS011;50936;51.660;5.616;2023-04-24T01:01:03;23.30;;;10.82;;
64543;SDS011;50936;51.660;5.616;2023-04-24T01:03:33;20.95;;;11.48;;
64543;SDS011;50936;51.660;5.616;2023-04-24T01:06:04;20.00;;;9.25;;
64543;SDS011;50936;51.660;5.616;2023-04-24T01:08:32;23.88;;;11.15;;
64543;SDS011;50936;51.660;5.616;2023-04-24T01:11:03;18.98;;;11.95;;
64543;SDS011;50936;51.660;5.616;2023-04-24T01:13:31;17.13;;;8.65;;
64543;SDS011;50936;51.660;5.616;2023-04-24T01:16:00;22.95;;;10.50;;
64543;SDS011;50936;51.660;5.616;2023-04-24T01:18:27;26.67;;;11.88;;
64543;SDS011;50936;51.660;5.616;2023-04-24T01:20:59;25.15;;;13.32;;
64543;SDS011;50936;51.660;5.616;2023-04-24T01:23:30;24.63;;;10.65;;
64543;SDS011;50936;51.660;5.616;2023-04-24T01:25:57;28.17;;;12.18;;
64543;SDS011;50936;51.660;5.616;2023-04-24T01:28:24;24.98;;;11.25;;
64543;SDS011;50936;51.660;5.616;2023-04-24T01:30:52;29.27;;;13.82;;
64543;SDS011;50936;51.660;5.616;2023-04-24T01:33:22;29.23;;;11.52;;
64543;SDS011;50936;51.660;5.616;2023-04-24T01:35:49;26.92;;;12.27;;
64543;SDS011;50936;51.660;5.616;2023-04-24T01:38:16;26.58;;;10.88;;
64543;SDS011;50936;51.660;5.616;2023-04-24T01:40:43;28.63;;;15.30;;
64543;SDS011;50936;51.660;5.616;2023-04-24T01:43:11;22.58;;;12.02;;
64543;SDS011;50936;51.660;5.616;2023-04-24T01:45:39;24.70;;;11.25;;
64543;SDS011;50936;51.660;5.616;2023-04-24T01:48:06;24.40;;;11.95;;
64543;SDS011;50936;51.660;5.616;2023-04-24T01:50:33;34.58;;;14.75;;
64543;SDS011;50936;51.660;5.616;2023-04-24T01:53:00;27.20;;;10.82;;
64543;SDS011;50936;51.660;5.616;2023-04-24T01:55:30;25.45;;;12.05;;
64543;SDS011;50936;51.660;5.616;2023-04-24T01:57:57;28.70;;;15.32;;
64543;SDS011;50936;51.660;5.616;2023-04-24T02:00:26;31.42;;;16.10;;
64543;SDS011;50936;51.660;5.616;2023-04-24T02:02:52;23.15;;;10.07;;
64543;SDS011;50936;51.660;5.616;2023-04-24T02:05:20;31.38;;;17.88;;
64543;SDS011;50936;51.660;5.616;2023-04-24T02:07:47;32.47;;;14.63;;
64543;SDS011;50936;51.660;5.616;2023-04-24T02:10:13;32.00;;;14.20;;
64543;SDS011;50936;51.660;5.616;2023-04-24T02:12:41;35.40;;;19.20;;
64543;SDS011;50936;51.660;5.616;2023-04-24T02:15:08;28.73;;;14.65;;
64543;SDS011;50936;51.660;5.616;2023-04-24T02:17:36;39.25;;;17.98;;
64543;SDS011;50936;51.660;5.616;2023-04-24T02:20:04;35.53;;;18.40;;
64543;SDS011;50936;51.660;5.616;2023-04-24T02:22:33;37.80;;;18.30;;
64543;SDS011;50936;51.660;5.616;2023-04-24T02:25:00;43.17;;;20.20;;
64543;SDS011;50936;51.660;5.616;2023-04-24T02:27:28;35.83;;;22.40;;
64543;SDS011;50936;51.660;5.616;2023-04-24T02:29:55;35.05;;;17.52;;
64543;SDS011;50936;51.660;5.616;2023-04-24T02:32:22;34.72;;;18.35;;
64543;SDS011;50936;51.660;5.616;2023-04-24T02:34:49;44.92;;;18.92;;
64543;SDS011;50936;51.660;5.616;2023-04-24T02:37:16;39.53;;;22.13;;
64543;SDS011;50936;51.660;5.616;2023-04-24T02:39:43;39.38;;;18.33;;
64543;SDS011;50936;51.660;5.616;2023-04-24T02:42:10;40.85;;;21.95;;
64543;SDS011;50936;51.660;5.616;2023-04-24T02:44:37;33.22;;;18.30;;
64543;SDS011;50936;51.660;5.616;2023-04-24T02:47:04;37.97;;;15.85;;
64543;SDS011;50936;51.660;5.616;2023-04-24T02:49:31;37.40;;;21.83;;
64543;SDS011;50936;51.660;5.616;2023-04-24T02:51:58;36.45;;;17.02;;
64543;SDS011;50936;51.660;5.616;2023-04-24T02:54:24;30.27;;;14.85;;
64543;SDS011;50936;51.660;5.616;2023-04-24T02:56:52;39.35;;;18.40;;
64543;SDS011;50936;51.660;5.616;2023-04-24T02:59:18;33.25;;;15.55;;
64543;SDS011;50936;51.660;5.616;2023-04-24T03:01:45;39.30;;;18.92;;
64543;SDS011;50936;51.660;5.616;2023-04-24T03:04:12;28.13;;;15.65;;
64543;SDS011;50936;51.660;5.616;2023-04-24T03:06:40;36.80;;;20.80;;
64543;SDS011;50936;51.660;5.616;2023-04-24T03:09:06;30.20;;;14.55;;
64543;SDS011;50936;51.660;5.616;2023-04-24T03:11:33;29.10;;;13.77;;
64543;SDS011;50936;51.660;5.616;2023-04-24T03:14:00;39.33;;;18.10;;
64543;SDS011;50936;51.660;5.616;2023-04-24T03:16:27;32.67;;;13.40;;
64543;SDS011;50936;51.660;5.616;2023-04-24T03:18:54;30.90;;;15.02;;
64543;SDS011;50936;51.660;5.616;2023-04-24T03:21:23;34.78;;;14.80;;
64543;SDS011;50936;51.660;5.616;2023-04-24T03:23:51;22.98;;;11.05;;
64543;SDS011;50936;51.660;5.616;2023-04-24T03:26:18;30.02;;;14.20;;
64543;SDS011;50936;51.660;5.616;2023-04-24T03:28:59;38.72;;;16.95;;
64543;SDS011;50936;51.660;5.616;2023-04-24T03:31:26;29.63;;;13.73;;
64543;SDS011;50936;51.660;5.616;2023-04-24T03:33:53;28.70;;;12.32;;
64543;SDS011;50936;51.660;5.616;2023-04-24T03:36:20;30.95;;;15.30;;
64543;SDS011;50936;51.660;5.616;2023-04-24T03:38:47;30.35;;;15.95;;
64543;SDS011;50936;51.660;5.616;2023-04-24T03:41:26;34.17;;;14.48;;
64543;SDS011;50936;51.660;5.616;2023-04-24T03:44:08;31.67;;;17.30;;
64543;SDS011;50936;51.660;5.616;2023-04-24T03:46:35;26.58;;;16.02;;
64543;SDS011;50936;51.660;5.616;2023-04-24T03:49:03;31.80;;;14.38;;
64543;SDS011;50936;51.660;5.616;2023-04-24T03:51:34;29.92;;;13.35;;
64543;SDS011;50936;51.660;5.616;2023-04-24T03:54:16;30.60;;;14.02;;
64543;SDS011;50936;51.660;5.616;2023-04-24T03:56:44;34.55;;;15.38;;
64543;SDS011;50936;51.660;5.616;2023-04-24T03:59:12;22.77;;;12.82;;
64543;SDS011;50936;51.660;5.616;2023-04-24T04:01:42;29.25;;;13.73;;
64543;SDS011;50936;51.660;5.616;2023-04-24T04:06:43;31.23;;;13.77;;
64543;SDS011;50936;51.660;5.616;2023-04-24T04:09:11;25.15;;;12.32;;
64543;SDS011;50936;51.660;5.616;2023-04-24T04:11:37;28.67;;;13.35;;
64543;SDS011;50936;51.660;5.616;2023-04-24T04:14:04;32.20;;;13.07;;
64543;SDS011;50936;51.660;5.616;2023-04-24T04:16:33;29.90;;;15.30;;
64543;SDS011;50936;51.660;5.616;2023-04-24T04:19:02;23.35;;;13.15;;
64543;SDS011;50936;51.660;5.616;2023-04-24T04:21:29;25.10;;;13.73;;
64543;SDS011;50936;51.660;5.616;2023-04-24T04:24:22;30.23;;;14.52;;
64543;SDS011;50936;51.660;5.616;2023-04-24T04:26:51;20.88;;;9.93;;
64543;SDS011;50936;51.660;5.616;2023-04-24T04:29:26;28.90;;;16.65;;
64543;SDS011;50936;51.660;5.616;2023-04-24T04:31:52;28.98;;;12.43;;
64543;SDS011;50936;51.660;5.616;2023-04-24T04:34:20;22.95;;;14.18;;
64543;SDS011;50936;51.660;5.616;2023-04-24T04:36:48;26.55;;;13.43;;
64543;SDS011;50936;51.660;5.616;2023-04-24T04:39:46;24.92;;;12.23;;
64543;SDS011;50936;51.660;5.616;2023-04-24T04:42:20;29.58;;;12.43;;
64543;SDS011;50936;51.660;5.616;2023-04-24T04:44:48;22.88;;;12.25;;
64543;SDS011;50936;51.660;5.616;2023-04-24T04:47:20;30.85;;;10.73;;
64543;SDS011;50936;51.660;5.616;2023-04-24T04:49:54;25.52;;;13.35;;
64543;SDS011;50936;51.660;5.616;2023-04-24T04:52:24;25.42;;;11.48;;
64543;SDS011;50936;51.660;5.616;2023-04-24T04:55:18;23.35;;;12.18;;
64543;SDS011;50936;51.660;5.616;2023-04-24T04:58:06;28.23;;;11.98;;
64543;SDS011;50936;51.660;5.616;2023-04-24T05:00:33;31.63;;;11.52;;
64543;SDS011;50936;51.660;5.616;2023-04-24T05:03:09;24.65;;;11.70;;
64543;SDS011;50936;51.660;5.616;2023-04-24T05:05:49;24.48;;;13.75;;
64543;SDS011;50936;51.660;5.616;2023-04-24T05:08:17;24.77;;;15.20;;
64543;SDS011;50936;51.660;5.616;2023-04-24T05:10:54;23.52;;;14.23;;
64543;SDS011;50936;51.660;5.616;2023-04-24T05:13:23;19.13;;;11.20;;
64543;SDS011;50936;51.660;5.616;2023-04-24T05:16:09;19.05;;;9.93;;
64543;SDS011;50936;51.660;5.616;2023-04-24T05:18:37;23.58;;;9.40;;
64543;SDS011;50936;51.660;5.616;2023-04-24T05:21:06;21.73;;;12.73;;
64543;SDS011;50936;51.660;5.616;2023-04-24T05:23:34;20.65;;;9.63;;
64543;SDS011;50936;51.660;5.616;2023-04-24T05:26:01;20.95;;;11.32;;
64543;SDS011;50936;51.660;5.616;2023-04-24T05:28:30;22.67;;;9.98;;
64543;SDS011;50936;51.660;5.616;2023-04-24T05:31:05;22.60;;;12.85;;
64543;SDS011;50936;51.660;5.616;2023-04-24T05:33:33;24.70;;;10.15;;
64543;SDS011;50936;51.660;5.616;2023-04-24T05:36:00;20.23;;;9.10;;
64543;SDS011;50936;51.660;5.616;2023-04-24T05:38:27;17.35;;;8.65;;
64543;SDS011;50936;51.660;5.616;2023-04-24T05:40:54;14.18;;;7.82;;
64543;SDS011;50936;51.660;5.616;2023-04-24T05:43:21;19.08;;;8.75;;
64543;SDS011;50936;51.660;5.616;2023-04-24T05:45:48;13.98;;;7.78;;
64543;SDS011;50936;51.660;5.616;2023-04-24T05:48:17;17.30;;;7.43;;
64543;SDS011;50936;51.660;5.616;2023-04-24T05:50:44;13.30;;;6.32;;
64543;SDS011;50936;51.660;5.616;2023-04-24T05:53:11;15.32;;;6.75;;
64543;SDS011;50936;51.660;5.616;2023-04-24T05:55:37;13.07;;;8.70;;
64543;SDS011;50936;51.660;5.616;2023-04-24T05:58:05;12.23;;;5.90;;
64543;SDS011;50936;51.660;5.616;2023-04-24T06:00:34;9.57;;;5.75;;
64543;SDS011;50936;51.660;5.616;2023-04-24T06:03:06;7.88;;;3.90;;
64543;SDS011;50936;51.660;5.616;2023-04-24T06:05:33;9.40;;;4.10;;
64543;SDS011;50936;51.660;5.616;2023-04-24T06:08:02;11.93;;;4.30;;
64543;SDS011;50936;51.660;5.616;2023-04-24T06:10:33;7.85;;;3.40;;
64543;SDS011;50936;51.660;5.616;2023-04-24T06:13:00;7.22;;;3.08;;
64543;SDS011;50936;51.660;5.616;2023-04-24T06:15:29;8.15;;;2.53;;
64543;SDS011;50936;51.660;5.616;2023-04-24T06:18:09;5.63;;;2.65;;
64543;SDS011;50936;51.660;5.616;2023-04-24T06:20:40;5.88;;;2.22;;
64543;SDS011;50936;51.660;5.616;2023-04-24T06:23:08;4.03;;;2.00;;
64543;SDS011;50936;51.660;5.616;2023-04-24T06:25:35;8.88;;;2.03;;
64543;SDS011;50936;51.660;5.616;2023-04-24T06:28:03;3.72;;;1.70;;
64543;SDS011;50936;51.660;5.616;2023-04-24T06:30:30;4.00;;;2.20;;
64543;SDS011;50936;51.660;5.616;2023-04-24T06:32:57;3.00;;;1.50;;
64543;SDS011;50936;51.660;5.616;2023-04-24T06:35:38;3.03;;;1.67;;
64543;SDS011;50936;51.660;5.616;2023-04-24T06:38:05;2.95;;;1.40;;
64543;SDS011;50936;51.660;5.616;2023-04-24T06:40:32;2.13;;;1.05;;
64543;SDS011;50936;51.660;5.616;2023-04-24T06:42:59;1.38;;;0.95;;
64543;SDS011;50936;51.660;5.616;2023-04-24T06:45:29;1.42;;;1.00;;
64543;SDS011;50936;51.660;5.616;2023-04-24T06:47:56;3.28;;;1.40;;
64543;SDS011;50936;51.660;5.616;2023-04-24T06:50:23;4.97;;;1.65;;
64543;SDS011;50936;51.660;5.616;2023-04-24T06:52:50;4.32;;;1.80;;
64543;SDS011;50936;51.660;5.616;2023-04-24T06:55:17;4.10;;;2.10;;
64543;SDS011;50936;51.660;5.616;2023-04-24T06:57:45;3.78;;;2.22;;
64543;SDS011;50936;51.660;5.616;2023-04-24T07:00:12;5.28;;;2.55;;
64543;SDS011;50936;51.660;5.616;2023-04-24T07:02:40;4.60;;;2.17;;
64543;SDS011;50936;51.660;5.616;2023-04-24T07:05:07;7.95;;;3.50;;
64543;SDS011;50936;51.660;5.616;2023-04-24T07:07:34;4.18;;;2.58;;
64543;SDS011;50936;51.660;5.616;2023-04-24T07:10:04;7.43;;;3.67;;
64543;SDS011;50936;51.660;5.616;2023-04-24T07:12:32;8.15;;;3.53;;
64543;SDS011;50936;51.660;5.616;2023-04-24T07:15:00;10.13;;;4.57;;
64543;SDS011;50936;51.660;5.616;2023-04-24T07:17:27;10.55;;;4.78;;
64543;SDS011;50936;51.660;5.616;2023-04-24T07:19:54;13.32;;;6.07;;
64543;SDS011;50936;51.660;5.616;2023-04-24T07:22:21;11.57;;;5.35;;
64543;SDS011;50936;51.660;5.616;2023-04-24T07:24:48;11.15;;;6.10;;
64543;SDS011;50936;51.660;5.616;2023-04-24T07:27:15;14.98;;;7.68;;
64543;SDS011;50936;51.660;5.616;2023-04-24T07:29:42;16.42;;;8.30;;
64543;SDS011;50936;51.660;5.616;2023-04-24T07:32:09;18.10;;;8.10;;
64543;SDS011;50936;51.660;5.616;2023-04-24T07:34:36;19.13;;;9.23;;
64543;SDS011;50936;51.660;5.616;2023-04-24T07:37:03;23.50;;;8.63;;
64543;SDS011;50936;51.660;5.616;2023-04-24T07:39:31;16.25;;;8.40;;
64543;SDS011;50936;51.660;5.616;2023-04-24T07:41:58;20.33;;;9.25;;
64543;SDS011;50936;51.660;5.616;2023-04-24T07:44:25;19.17;;;7.40;;
64543;SDS011;50936;51.660;5.616;2023-04-24T07:46:52;20.38;;;9.25;;
64543;SDS011;50936;51.660;5.616;2023-04-24T07:49:20;16.35;;;7.60;;
64543;SDS011;50936;51.660;5.616;2023-04-24T07:51:47;14.73;;;7.53;;
64543;SDS011;50936;51.660;5.616;2023-04-24T07:54:16;14.02;;;6.65;;
64543;SDS011;50936;51.660;5.616;2023-04-24T07:56:43;21.75;;;8.30;;
64543;SDS011;50936;51.660;5.616;2023-04-24T07:59:10;14.02;;;6.15;;
64543;SDS011;50936;51.660;5.616;2023-04-24T08:01:37;16.58;;;7.22;;
64543;SDS011;50936;51.660;5.616;2023-04-24T08:04:04;19.63;;;8.25;;
64543;SDS011;50936;51.660;5.616;2023-04-24T08:06:32;17.35;;;7.55;;
64543;SDS011;50936;51.660;5.616;2023-04-24T08:08:59;18.20;;;7.78;;
64543;SDS011;50936;51.660;5.616;2023-04-24T08:11:26;17.65;;;7.15;;
64543;SDS011;50936;51.660;5.616;2023-04-24T08:13:54;15.60;;;7.32;;
64543;SDS011;50936;51.660;5.616;2023-04-24T08:16:21;19.67;;;6.82;;
64543;SDS011;50936;51.660;5.616;2023-04-24T08:18:50;20.15;;;7.25;;
64543;SDS011;50936;51.660;5.616;2023-04-24T08:21:19;19.40;;;6.97;;
64543;SDS011;50936;51.660;5.616;2023-04-24T08:23:47;17.42;;;6.63;;
64543;SDS011;50936;51.660;5.616;2023-04-24T08:26:13;18.60;;;5.53;;
64543;SDS011;50936;51.660;5.616;2023-04-24T08:28:41;24.35;;;6.60;;
64543;SDS011;50936;51.660;5.616;2023-04-24T08:31:08;25.48;;;6.63;;
64543;SDS011;50936;51.660;5.616;2023-04-24T08:33:35;15.88;;;5.95;;
64543;SDS011;50936;51.660;5.616;2023-04-24T08:36:03;12.23;;;5.07;;
64543;SDS011;50936;51.660;5.616;2023-04-24T08:38:31;11.68;;;4.82;;
64543;SDS011;50936;51.660;5.616;2023-04-24T08:41:00;12.07;;;4.15;;
64543;SDS011;50936;51.660;5.616;2023-04-24T08:43:28;17.63;;;4.78;;
64543;SDS011;50936;51.660;5.616;2023-04-24T08:45:55;12.23;;;4.00;;
64543;SDS011;50936;51.660;5.616;2023-04-24T08:48:23;11.25;;;3.97;;
64543;SDS011;50936;51.660;5.616;2023-04-24T08:50:57;14.35;;;4.82;;
64543;SDS011;50936;51.660;5.616;2023-04-24T08:53:26;13.32;;;4.20;;
64543;SDS011;50936;51.660;5.616;2023-04-24T08:55:54;16.25;;;5.03;;
64543;SDS011;50936;51.660;5.616;2023-04-24T08:58:25;13.88;;;4.35;;
64543;SDS011;50936;51.660;5.616;2023-04-24T09:00:56;16.30;;;4.20;;
64543;SDS011;50936;51.660;5.616;2023-04-24T09:03:24;18.05;;;4.63;;
64543;SDS011;50936;51.660;5.616;2023-04-24T09:05:55;10.80;;;3.42;;
64543;SDS011;50936;51.660;5.616;2023-04-24T09:08:25;12.85;;;3.50;;
64543;SDS011;50936;51.660;5.616;2023-04-24T09:10:54;8.63;;;3.45;;
64543;SDS011;50936;51.660;5.616;2023-04-24T09:13:21;9.43;;;2.95;;
64543;SDS011;50936;51.660;5.616;2023-04-24T09:15:48;13.02;;;3.50;;
64543;SDS011;50936;51.660;5.616;2023-04-24T09:18:16;15.40;;;3.58;;
64543;SDS011;50936;51.660;5.616;2023-04-24T09:23:31;21.40;;;5.30;;
64543;SDS011;50936;51.660;5.616;2023-04-24T09:25:59;14.63;;;4.45;;
64543;SDS011;50936;51.660;5.616;2023-04-24T09:28:32;14.32;;;3.13;;
64543;SDS011;50936;51.660;5.616;2023-04-24T09:31:07;10.27;;;3.35;;
64543;SDS011;50936;51.660;5.616;2023-04-24T09:33:40;13.10;;;3.33;;
64543;SDS011;50936;51.660;5.616;2023-04-24T09:36:26;14.32;;;3.42;;
64543;SDS011;50936;51.660;5.616;2023-04-24T09:39:00;9.57;;;2.65;;
64543;SDS011;50936;51.660;5.616;2023-04-24T09:41:28;9.20;;;2.92;;
64543;SDS011;50936;51.660;5.616;2023-04-24T09:43:55;14.25;;;4.05;;
64543;SDS011;50936;51.660;5.616;2023-04-24T09:46:29;8.57;;;3.78;;
64543;SDS011;50936;51.660;5.616;2023-04-24T09:49:07;10.27;;;3.05;;
64543;SDS011;50936;51.660;5.616;2023-04-24T09:51:37;9.88;;;2.92;;
64543;SDS011;50936;51.660;5.616;2023-04-24T09:54:11;7.82;;;3.08;;
64543;SDS011;50936;51.660;5.616;2023-04-24T09:56:45;8.07;;;2.42;;
64543;SDS011;50936;51.660;5.616;2023-04-24T09:59:14;7.85;;;2.67;;
64543;SDS011;50936;51.660;5.616;2023-04-24T10:01:42;7.55;;;2.70;;
64543;SDS011;50936;51.660;5.616;2023-04-24T10:04:24;12.60;;;2.67;;
64543;SDS011;50936;51.660;5.616;2023-04-24T10:06:53;9.82;;;2.38;;
64543;SDS011;50936;51.660;5.616;2023-04-24T10:09:23;7.22;;;2.53;;
64543;SDS011;50936;51.660;5.616;2023-04-24T10:11:53;7.63;;;2.95;;
64543;SDS011;50936;51.660;5.616;2023-04-24T10:14:24;10.82;;;3.65;;
64543;SDS011;50936;51.660;5.616;2023-04-24T10:16:55;7.47;;;1.88;;
64543;SDS011;50936;51.660;5.616;2023-04-24T10:19:25;13.43;;;2.35;;
64543;SDS011;50936;51.660;5.616;2023-04-24T10:21:52;15.40;;;3.20;;
64543;SDS011;50936;51.660;5.616;2023-04-24T10:24:22;8.60;;;3.10;;
64543;SDS011;50936;51.660;5.616;2023-04-24T10:26:49;7.47;;;2.63;;
64543;SDS011;50936;51.660;5.616;2023-04-24T10:29:17;12.18;;;2.47;;
64543;SDS011;50936;51.660;5.616;2023-04-24T10:31:45;10.80;;;3.10;;
64543;SDS011;50936;51.660;5.616;2023-04-24T10:34:14;14.35;;;3.28;;
64543;SDS011;50936;51.660;5.616;2023-04-24T10:36:49;9.38;;;2.75;;
64543;SDS011;50936;51.660;5.616;2023-04-24T10:41:53;8.38;;;2.38;;
64543;SDS011;50936;51.660;5.616;2023-04-24T10:44:23;6.68;;;2.00;;
64543;SDS011;50936;51.660;5.616;2023-04-24T10:46:55;8.02;;;2.25;;
64543;SDS011;50936;51.660;5.616;2023-04-24T10:49:29;6.45;;;1.90;;
64543;SDS011;50936;51.660;5.616;2023-04-24T10:52:02;4.38;;;2.00;;
64543;SDS011;50936;51.660;5.616;2023-04-24T10:59:51;5.65;;;1.27;;
64543;SDS011;50936;51.660;5.616;2023-04-24T11:02:40;10.05;;;2.20;;
64543;SDS011;50936;51.660;5.616;2023-04-24T11:05:16;4.57;;;1.80;;
64543;SDS011;50936;51.660;5.616;2023-04-24T11:10:46;3.80;;;1.50;;
64543;SDS011;50936;51.660;5.616;2023-04-24T11:13:26;5.82;;;1.60;;
64543;SDS011;50936;51.660;5.616;2023-04-24T11:18:59;5.57;;;1.05;;
64543;SDS011;50936;51.660;5.616;2023-04-24T11:21:42;2.17;;;1.00;;
64543;SDS011;50936;51.660;5.616;2023-04-24T11:24:38;4.05;;;1.10;;
64543;SDS011;50936;51.660;5.616;2023-04-24T11:27:21;4.15;;;1.48;;
64543;SDS011;50936;51.660;5.616;2023-04-24T11:29:51;6.97;;;2.05;;
64543;SDS011;50936;51.660;5.616;2023-04-24T11:32:34;4.97;;;1.60;;
64543;SDS011;50936;51.660;5.616;2023-04-24T11:35:14;2.92;;;1.50;;
64543;SDS011;50936;51.660;5.616;2023-04-24T11:37:45;3.15;;;1.67;;
64543;SDS011;50936;51.660;5.616;2023-04-24T11:40:19;4.38;;;1.90;;
64543;SDS011;50936;51.660;5.616;2023-04-24T11:42:52;3.08;;;1.45;;
64543;SDS011;50936;51.660;5.616;2023-04-24T11:45:24;4.95;;;1.42;;
64543;SDS011;50936;51.660;5.616;2023-04-24T11:47:53;3.30;;;1.40;;
64543;SDS011;50936;51.660;5.616;2023-04-24T11:50:24;3.15;;;0.95;;
64543;SDS011;50936;51.660;5.616;2023-04-24T11:52:54;7.75;;;1.67;;
64543;SDS011;50936;51.660;5.616;2023-04-24T11:55:23;3.63;;;1.40;;
64543;SDS011;50936;51.660;5.616;2023-04-24T11:57:57;4.13;;;2.08;;
64543;SDS011;50936;51.660;5.616;2023-04-24T12:00:30;3.50;;;1.80;;
64543;SDS011;50936;51.660;5.616;2023-04-24T12:05:38;8.50;;;1.75;;
64543;SDS011;50936;51.660;5.616;2023-04-24T12:08:06;6.63;;;1.50;;
64543;SDS011;50936;51.660;5.616;2023-04-24T12:10:33;4.53;;;1.70;;
64543;SDS011;50936;51.660;5.616;2023-04-24T12:13:01;10.43;;;1.80;;
64543;SDS011;50936;51.660;5.616;2023-04-24T12:15:29;4.30;;;1.80;;
64543;SDS011;50936;51.660;5.616;2023-04-24T12:17:56;6.13;;;2.10;;
64543;SDS011;50936;51.660;5.616;2023-04-24T12:20:27;8.10;;;1.92;;
64543;SDS011;50936;51.660;5.616;2023-04-24T12:22:58;6.82;;;1.45;;
64543;SDS011;50936;51.660;5.616;2023-04-24T12:25:29;3.30;;;1.17;;
64543;SDS011;50936;51.660;5.616;2023-04-24T12:30:31;3.65;;;1.27;;
64543;SDS011;50936;51.660;5.616;2023-04-24T12:33:02;4.80;;;1.65;;
64543;SDS011;50936;51.660;5.616;2023-04-24T12:35:30;7.53;;;1.38;;
64543;SDS011;50936;51.660;5.616;2023-04-24T12:38:07;3.95;;;1.30;;
64543;SDS011;50936;51.660;5.616;2023-04-24T12:40:40;5.50;;;1.40;;
64543;SDS011;50936;51.660;5.616;2023-04-24T12:43:14;8.60;;;1.65;;
64543;SDS011;50936;51.660;5.616;2023-04-24T12:45:42;5.60;;;1.60;;
64543;SDS011;50936;51.660;5.616;2023-04-24T12:48:11;2.55;;;1.38;;
64543;SDS011;50936;51.660;5.616;2023-04-24T12:50:40;6.82;;;2.10;;
64543;SDS011;50936;51.660;5.616;2023-04-24T12:53:11;5.82;;;2.17;;
64543;SDS011;50936;51.660;5.616;2023-04-24T12:55:38;6.10;;;2.40;;
64543;SDS011;50936;51.660;5.616;2023-04-24T12:58:06;4.15;;;1.98;;
64543;SDS011;50936;51.660;5.616;2023-04-24T13:00:34;7.68;;;2.25;;
64543;SDS011;50936;51.660;5.616;2023-04-24T13:03:01;5.82;;;2.17;;
64543;SDS011;50936;51.660;5.616;2023-04-24T13:05:29;2.83;;;1.70;;
64543;SDS011;50936;51.660;5.616;2023-04-24T13:07:57;5.75;;;1.55;;
64543;SDS011;50936;51.660;5.616;2023-04-24T13:10:24;3.85;;;1.77;;
64543;SDS011;50936;51.660;5.616;2023-04-24T13:12:51;5.18;;;1.90;;
64543;SDS011;50936;51.660;5.616;2023-04-24T13:15:18;2.95;;;1.40;;
64543;SDS011;50936;51.660;5.616;2023-04-24T13:17:45;6.57;;;1.73;;
64543;SDS011;50936;51.660;5.616;2023-04-24T13:20:12;3.42;;;1.25;;
64543;SDS011;50936;51.660;5.616;2023-04-24T13:22:39;6.97;;;1.30;;
64543;SDS011;50936;51.660;5.616;2023-04-24T13:25:06;5.43;;;1.90;;
64543;SDS011;50936;51.660;5.616;2023-04-24T13:27:33;4.60;;;1.40;;
64543;SDS011;50936;51.660;5.616;2023-04-24T13:30:00;3.95;;;1.45;;
64543;SDS011;50936;51.660;5.616;2023-04-24T13:32:27;2.83;;;1.30;;
64543;SDS011;50936;51.660;5.616;2023-04-24T13:34:56;5.95;;;1.75;;
64543;SDS011;50936;51.660;5.616;2023-04-24T13:37:23;3.17;;;1.55;;
64543;SDS011;50936;51.660;5.616;2023-04-24T13:39:50;4.22;;;1.88;;
64543;SDS011;50936;51.660;5.616;2023-04-24T13:42:17;5.43;;;2.08;;
64543;SDS011;50936;51.660;5.616;2023-04-24T13:44:46;5.63;;;2.40;;
64543;SDS011;50936;51.660;5.616;2023-04-24T13:47:13;4.50;;;1.60;;
64543;SDS011;50936;51.660;5.616;2023-04-24T13:49:40;6.63;;;1.83;;
64543;SDS011;50936;51.660;5.616;2023-04-24T13:52:06;4.22;;;1.80;;
64543;SDS011;50936;51.660;5.616;2023-04-24T13:54:34;5.47;;;2.20;;
64543;SDS011;50936;51.660;5.616;2023-04-24T13:57:01;4.47;;;2.63;;
64543;SDS011;50936;51.660;5.616;2023-04-24T13:59:29;4.85;;;1.92;;
64543;SDS011;50936;51.660;5.616;2023-04-24T14:01:56;5.95;;;2.30;;
64543;SDS011;50936;51.660;5.616;2023-04-24T14:04:23;2.90;;;1.63;;
64543;SDS011;50936;51.660;5.616;2023-04-24T14:06:51;4.30;;;1.60;;
64543;SDS011;50936;51.660;5.616;2023-04-24T14:09:17;3.35;;;1.40;;
64543;SDS011;50936;51.660;5.616;2023-04-24T14:11:44;8.55;;;1.85;;
64543;SDS011;50936;51.660;5.616;2023-04-24T14:14:11;6.53;;;1.10;;
64543;SDS011;50936;51.660;5.616;2023-04-24T14:16:38;2.05;;;1.10;;
64543;SDS011;50936;51.660;5.616;2023-04-24T14:19:06;4.05;;;1.75;;
64543;SDS011;50936;51.660;5.616;2023-04-24T14:21:33;4.22;;;2.63;;
64543;SDS011;50936;51.660;5.616;2023-04-24T14:24:00;3.85;;;1.73;;
64543;SDS011;50936;51.660;5.616;2023-04-24T14:26:27;2.38;;;1.20;;
64543;SDS011;50936;51.660;5.616;2023-04-24T14:28:54;5.80;;;1.95;;
64543;SDS011;50936;51.660;5.616;2023-04-24T14:31:36;3.03;;;1.77;;
64543;SDS011;50936;51.660;5.616;2023-04-24T14:34:03;5.15;;;2.10;;
64543;SDS011;50936;51.660;5.616;2023-04-24T14:36:30;4.95;;;1.63;;
64543;SDS011;50936;51.660;5.616;2023-04-24T14:38:57;4.80;;;1.83;;
64543;SDS011;50936;51.660;5.616;2023-04-24T14:41:24;5.60;;;2.22;;
64543;SDS011;50936;51.660;5.616;2023-04-24T14:43:51;7.70;;;2.10;;
64543;SDS011;50936;51.660;5.616;2023-04-24T14:46:18;4.93;;;2.00;;
64543;SDS011;50936;51.660;5.616;2023-04-24T14:48:46;4.32;;;2.40;;
64543;SDS011;50936;51.660;5.616;2023-04-24T14:51:13;9.73;;;2.95;;
64543;SDS011;50936;51.660;5.616;2023-04-24T14:53:40;6.38;;;2.50;;
64543;SDS011;50936;51.660;5.616;2023-04-24T14:56:07;5.05;;;2.80;;
64543;SDS011;50936;51.660;5.616;2023-04-24T14:58:34;5.25;;;1.92;;
64543;SDS011;50936;51.660;5.616;2023-04-24T15:01:01;4.63;;;2.15;;
64543;SDS011;50936;51.660;5.616;2023-04-24T15:03:28;7.43;;;3.10;;
64543;SDS011;50936;51.660;5.616;2023-04-24T15:05:56;5.97;;;2.63;;
64543;SDS011;50936;51.660;5.616;2023-04-24T15:08:23;6.05;;;1.80;;
64543;SDS011;50936;51.660;5.616;2023-04-24T15:10:50;5.10;;;1.83;;
64543;SDS011;50936;51.660;5.616;2023-04-24T15:13:17;4.85;;;1.90;;